Aeroporto :
LOGIN :

Iscrizione | Disclaimer

   EN    FR    IT 

 










Sommario :    VFR   VFR Marginale   IFR   IFR Intensivo   IFR Molto Intensivo
Visibilità : 
Base nubi : 
>= 8 km
>= 3000ft
5 / 8 km
1000 / 3000 ft
1500m / 5 km
500 / 1000 ft
800 / 1500m
200 / 500 ft
< 800m
< 200 ft
Simboli :   Temporali  Nebbia  Neve Forte  Precipitazioni Forti  Vento > 20 kt
SIGMETs :   Varie  Temporali  Ghiacco  Turbolenza  Onda orograficha  Ceneri Vulcaniche







- Altitudine del aeroporto : 1306 ft
- Codice IATA : ACH


LSZR - Alten Rhein

ULTIMO METAR :
  • 202120Z AUTO VRB04KT 9999 NSC 14/11 Q1015

METARs OBSOLETI :
  • 202050Z AUTO VRB03KT CAVOK 14/11 Q1015
  • 202020Z AUTO 09006KT CAVOK 14/11 Q1016
  • 201950Z AUTO 11005KT CAVOK 14/12 Q1016
  • 201920Z AUTO 08004KT 9999 NSC 14/12 Q1016
  • 201850Z AUTO 13004KT 100V160 9999 FEW060 SCT080 OVC120 16/12 Q1016

TAF TAF LSZR
Valido dal 20 a 15 ore il 21 a 00 ore UTC


201425Z 2015/2024 11007KT CAVOK
PROB40
TEMPO 2015/2019 SHRA FEW040TCU BKN050
ATIS : +41 71 858 51 66
Nessun NOTAM noto per questo aeroporto.



MetMap, La meteo Aeronautica in un colpo d'occhio ! - Copyright ORBIFLY Dicembre 2007 - Disclaimer

ORBIFLY MET'MAP TEAM :

Programmazione e sviluppo : Alexandra Zaïnal
Concezione e sviluppo : Baudouin d'Aumeries
Co-Programmazione e sviluppo : Marc-Olivier Méhu
Supporto tecnico e logistico : Manuel Goepfert
Aiuto per la traduzione : Arnaldo La Scala

Contatto : metmap@orbifly.com




FONTI E CREDITI :

   NOAA